createdAt,value
2022-08-20T09:46:54.768Z,7.03
2022-08-20T09:49:21.548Z,5.18
2022-08-20T09:51:48.262Z,5.70
2022-08-20T09:54:14.975Z,6.88
2022-08-20T09:56:44.382Z,7.65
2022-08-20T09:59:11.146Z,5.88
2022-08-20T10:01:37.869Z,6.88
2022-08-20T10:04:04.763Z,6.07
2022-08-20T10:06:35.767Z,6.30
2022-08-20T10:09:04.032Z,5.40
2022-08-20T10:11:30.740Z,5.63
2022-08-20T10:13:57.536Z,5.85
2022-08-20T10:16:25.144Z,5.28
2022-08-20T10:18:51.941Z,5.00
2022-08-20T10:21:18.656Z,8.15
2022-08-20T10:23:45.466Z,6.28
2022-08-20T10:26:12.286Z,6.55
2022-08-20T10:28:39.014Z,5.97
2022-08-20T10:31:05.718Z,8.05
2022-08-20T10:33:34.699Z,8.40
2022-08-20T10:36:01.458Z,4.75
2022-08-20T10:38:28.226Z,7.35
2022-08-20T10:40:55.015Z,7.55
2022-08-20T10:43:21.743Z,4.60
2022-08-20T10:45:48.579Z,9.52
2022-08-20T10:48:19.551Z,6.30
2022-08-20T10:50:48.202Z,6.97
2022-08-20T10:53:14.959Z,8.02
2022-08-20T10:55:41.789Z,5.97
2022-08-20T10:58:08.756Z,4.03
2022-08-20T11:00:38.372Z,6.95
2022-08-20T11:03:05.128Z,8.88
2022-08-20T11:05:31.863Z,6.38
2022-08-20T11:07:59.887Z,9.40
2022-08-20T11:10:26.678Z,7.03
2022-08-20T11:12:53.377Z,7.10
2022-08-20T11:15:20.115Z,7.82
2022-08-20T11:17:46.878Z,6.70
2022-08-20T11:20:13.646Z,4.80
2022-08-20T11:22:40.334Z,6.10
2022-08-20T11:25:07.058Z,8.85
2022-08-20T11:27:33.843Z,4.93
2022-08-20T11:30:00.613Z,5.30
2022-08-20T11:32:27.365Z,5.25
2022-08-20T11:34:54.037Z,5.95
2022-08-20T11:37:20.769Z,5.70
2022-08-20T11:39:47.538Z,9.43
2022-08-20T11:42:14.262Z,6.30
2022-08-20T11:44:41.005Z,9.20
2022-08-20T11:47:07.783Z,6.53
2022-08-20T11:49:34.516Z,6.63
2022-08-20T11:52:01.247Z,5.50
2022-08-20T11:54:29.466Z,4.25
2022-08-20T11:56:59.586Z,6.30
2022-08-20T11:59:26.372Z,5.25
2022-08-20T12:02:03.128Z,6.80
2022-08-20T12:04:33.370Z,4.45
2022-08-20T12:07:01.765Z,4.60
2022-08-20T12:09:29.079Z,4.43
2022-08-20T12:11:55.801Z,6.70
2022-08-20T12:14:22.571Z,9.98
2022-08-20T12:16:49.268Z,3.88
2022-08-20T12:19:16.026Z,6.47
2022-08-20T12:21:42.710Z,5.93
2022-08-20T12:24:09.437Z,3.15
2022-08-20T12:26:36.182Z,3.95
2022-08-20T12:29:03.076Z,6.55
2022-08-20T12:31:29.813Z,4.68
2022-08-20T12:33:56.545Z,5.47
2022-08-20T12:36:23.275Z,6.07
2022-08-20T12:38:49.999Z,5.82
2022-08-20T12:41:16.805Z,4.40
2022-08-20T12:43:43.516Z,5.63
2022-08-20T12:46:10.264Z,4.28
2022-08-20T12:48:37.018Z,5.03
2022-08-20T12:51:03.761Z,4.22
2022-08-20T12:53:30.546Z,3.88
2022-08-20T12:55:57.272Z,5.13
2022-08-20T12:58:24.720Z,7.82
2022-08-20T13:00:51.543Z,3.88
2022-08-20T13:03:18.392Z,5.13
2022-08-20T13:05:45.341Z,5.00
2022-08-20T13:08:12.096Z,5.25
2022-08-20T13:10:42.472Z,4.47
2022-08-20T13:13:09.185Z,5.05
2022-08-20T13:15:35.949Z,3.72
2022-08-20T13:18:02.674Z,4.97
2022-08-20T13:20:31.629Z,4.10
2022-08-20T13:23:01.075Z,3.42
2022-08-20T13:25:27.863Z,4.15
2022-08-20T13:27:54.614Z,4.68
2022-08-20T13:30:21.341Z,4.45
2022-08-20T13:32:48.115Z,6.65
2022-08-20T13:35:14.906Z,4.72
2022-08-20T13:37:41.632Z,5.97
2022-08-20T13:40:09.005Z,3.85
2022-08-20T13:42:35.776Z,8.18
2022-08-20T13:45:02.609Z,5.38
2022-08-20T13:47:29.950Z,5.45
2022-08-20T13:49:56.995Z,4.25
2022-08-20T13:52:23.787Z,3.25
2022-08-20T13:54:50.717Z,5.90
2022-08-20T13:57:17.456Z,5.57
2022-08-20T13:59:44.309Z,4.80
2022-08-20T14:02:11.005Z,4.78
2022-08-20T14:04:37.718Z,5.32
2022-08-20T14:07:04.480Z,6.30
2022-08-20T14:09:31.191Z,4.90
2022-08-20T14:11:58.103Z,6.38
2022-08-20T14:14:24.895Z,6.07
2022-08-20T14:16:51.597Z,5.45
2022-08-20T14:19:18.845Z,4.55
2022-08-20T14:21:45.565Z,8.57
2022-08-20T14:24:12.266Z,3.38
2022-08-20T14:26:38.965Z,4.85
2022-08-20T14:29:05.796Z,4.72
2022-08-20T14:31:32.569Z,4.93
2022-08-20T14:33:59.309Z,3.83
2022-08-20T14:36:26.007Z,6.68
2022-08-20T14:38:52.776Z,8.73
2022-08-20T14:41:19.532Z,6.63
2022-08-20T14:43:46.264Z,9.90
2022-08-20T14:46:13.022Z,4.18
2022-08-20T14:48:39.724Z,5.53
2022-08-20T14:51:09.803Z,2.78
2022-08-20T14:53:40.516Z,6.70
2022-08-20T14:56:07.537Z,4.75
2022-08-20T14:58:34.243Z,4.10
2022-08-20T15:01:00.953Z,4.43
2022-08-20T15:03:30.562Z,5.38
2022-08-20T15:05:57.548Z,5.60
2022-08-20T15:08:28.385Z,4.85
2022-08-20T15:10:55.708Z,4.22
2022-08-20T15:13:22.395Z,3.67
2022-08-20T15:15:49.093Z,4.63
2022-08-20T15:18:15.831Z,4.07
2022-08-20T15:20:42.507Z,5.78
2022-08-20T15:23:09.270Z,5.53
2022-08-20T15:25:37.477Z,5.55
2022-08-20T15:28:04.825Z,5.18
2022-08-20T15:30:32.510Z,4.75
2022-08-20T15:32:59.518Z,6.53
2022-08-20T15:35:26.523Z,6.15
2022-08-20T15:37:54.599Z,5.68
2022-08-20T15:40:24.598Z,4.43
2022-08-20T15:42:54.517Z,5.30
2022-08-20T15:45:21.999Z,8.10
2022-08-20T15:47:49.097Z,5.30
2022-08-20T15:50:15.812Z,6.15
2022-08-20T15:52:42.515Z,4.07
2022-08-20T15:55:09.235Z,6.55
2022-08-20T15:57:35.971Z,5.35
2022-08-20T16:00:02.738Z,3.95
2022-08-20T16:02:30.886Z,4.80
2022-08-20T16:04:57.793Z,5.30
2022-08-20T16:07:24.667Z,5.63
2022-08-20T16:09:51.843Z,4.35
2022-08-20T16:12:18.639Z,7.45
2022-08-20T16:14:45.832Z,7.78
2022-08-20T16:17:12.632Z,5.93
2022-08-20T16:19:39.329Z,5.90
2022-08-20T16:22:06.291Z,4.97
2022-08-20T16:24:33.046Z,7.68
2022-08-20T16:27:01.282Z,8.65
2022-08-20T16:29:28.023Z,7.80
2022-08-20T16:31:54.856Z,8.10
2022-08-20T16:34:29.858Z,5.50
2022-08-20T16:37:03.634Z,5.68
2022-08-20T16:39:31.351Z,8.15
2022-08-20T16:42:05.864Z,10.30
2022-08-20T16:44:32.984Z,7.65
2022-08-20T16:46:59.704Z,8.40
2022-08-20T16:49:26.469Z,8.57
2022-08-20T16:51:53.231Z,6.35
2022-08-20T16:54:30.072Z,6.95
2022-08-20T16:56:57.784Z,10.05
2022-08-20T16:59:26.986Z,7.50
2022-08-20T17:01:54.187Z,5.90
2022-08-20T17:04:28.408Z,5.47
2022-08-20T17:06:55.149Z,7.45
2022-08-20T17:09:22.153Z,10.00
2022-08-20T17:11:50.953Z,8.65
2022-08-20T17:14:17.734Z,8.73
2022-08-20T17:16:44.425Z,6.47
2022-08-20T17:19:11.199Z,10.98
2022-08-20T17:21:38.339Z,8.00
2022-08-20T17:24:05.050Z,5.43
2022-08-20T17:26:31.800Z,10.10
2022-08-20T17:28:58.514Z,9.63
2022-08-20T17:31:25.227Z,5.57
2022-08-20T17:34:05.369Z,7.22
2022-08-20T17:36:34.320Z,9.07
2022-08-20T17:39:01.209Z,6.88
2022-08-20T17:41:27.925Z,6.78
2022-08-20T17:43:54.690Z,9.10
2022-08-20T17:46:21.469Z,6.53
2022-08-20T17:48:48.294Z,6.38
2022-08-20T17:51:15.001Z,6.65
2022-08-20T17:53:41.759Z,6.45
2022-08-20T17:56:08.481Z,8.43
2022-08-20T17:58:35.456Z,6.20
2022-08-20T18:01:02.215Z,9.98
2022-08-20T18:03:29.164Z,5.70
2022-08-20T18:05:55.893Z,7.57
2022-08-20T18:08:22.780Z,7.95
2022-08-20T18:10:49.644Z,5.40
2022-08-20T18:13:16.395Z,5.57
2022-08-20T18:15:43.115Z,8.52
2022-08-20T18:18:09.838Z,6.15
2022-08-20T18:20:37.734Z,7.68
2022-08-20T18:23:07.269Z,8.10
2022-08-20T18:25:36.968Z,5.88
2022-08-20T18:28:03.757Z,8.27
2022-08-20T18:30:31.383Z,5.75
2022-08-20T18:32:58.381Z,7.70
2022-08-20T18:35:25.153Z,6.03
2022-08-20T18:37:52.642Z,7.10
2022-08-20T18:40:19.488Z,7.28
2022-08-20T18:42:46.337Z,8.52
2022-08-20T18:45:13.113Z,9.77
2022-08-20T18:47:40.265Z,9.35
2022-08-20T18:50:15.884Z,7.70
2022-08-20T18:52:43.839Z,6.13
2022-08-20T18:55:10.579Z,6.88
2022-08-20T18:57:40.803Z,7.38
2022-08-20T19:00:12.010Z,8.45
2022-08-20T19:02:38.829Z,6.72
2022-08-20T19:05:05.562Z,9.05
2022-08-20T19:07:45.812Z,8.57
2022-08-20T19:10:27.909Z,8.60
2022-08-20T19:12:57.077Z,8.23
2022-08-20T19:15:23.942Z,8.88
2022-08-20T19:17:50.687Z,8.52
2022-08-20T19:20:17.458Z,9.48
2022-08-20T19:22:44.791Z,9.57
2022-08-20T19:25:11.543Z,7.47
2022-08-20T19:27:38.825Z,6.80
2022-08-20T19:30:05.513Z,8.38
2022-08-20T19:32:32.280Z,6.90
2022-08-20T19:34:59.020Z,8.80
2022-08-20T19:37:35.230Z,6.05
2022-08-20T19:40:11.562Z,7.63
2022-08-20T19:42:38.334Z,9.48
2022-08-20T19:45:05.483Z,8.95
2022-08-20T19:47:32.194Z,10.25
2022-08-20T19:49:58.955Z,10.32
2022-08-20T19:52:25.912Z,12.57
2022-08-20T19:54:52.657Z,10.20
2022-08-20T19:57:19.391Z,6.75
2022-08-20T19:59:46.104Z,9.98
2022-08-20T20:02:20.469Z,8.60
2022-08-20T20:04:55.098Z,6.93
2022-08-20T20:07:24.575Z,7.45
2022-08-20T20:09:51.345Z,9.75
2022-08-20T20:12:22.914Z,9.02
2022-08-20T20:14:49.918Z,12.30
2022-08-20T20:17:21.019Z,10.57
2022-08-20T20:19:49.677Z,13.32
2022-08-20T20:22:20.104Z,10.57
2022-08-20T20:24:47.196Z,9.75
2022-08-20T20:27:14.838Z,11.48
2022-08-20T20:29:52.827Z,11.82
2022-08-20T20:32:19.860Z,8.00
2022-08-20T20:34:54.891Z,7.38
2022-08-20T20:37:42.664Z,13.43
2022-08-20T20:40:12.365Z,10.48
2022-08-20T20:42:47.204Z,11.77
2022-08-20T20:45:13.951Z,11.02
2022-08-20T20:47:40.657Z,11.88
2022-08-20T20:50:07.393Z,9.75
2022-08-20T20:52:34.179Z,9.13
2022-08-20T20:55:00.898Z,10.68
2022-08-20T20:57:32.667Z,9.68
2022-08-20T21:00:05.260Z,10.68
2022-08-20T21:02:33.541Z,13.07
2022-08-20T21:05:00.325Z,10.90
2022-08-20T21:07:27.058Z,11.15
2022-08-20T21:09:54.007Z,13.23
2022-08-20T21:12:21.703Z,11.18
2022-08-20T21:14:48.417Z,11.57
2022-08-20T21:17:15.264Z,15.75
2022-08-20T21:19:45.241Z,13.05
2022-08-20T21:22:12.175Z,16.98
2022-08-20T21:24:38.853Z,11.48
2022-08-20T21:27:05.571Z,10.10
2022-08-20T21:29:33.078Z,11.50
2022-08-20T21:31:59.967Z,12.90
2022-08-20T21:34:26.661Z,9.38
2022-08-20T21:36:53.405Z,11.13
2022-08-20T21:39:21.471Z,10.65
2022-08-20T21:41:48.167Z,10.85
2022-08-20T21:44:16.408Z,13.20
2022-08-20T21:46:48.144Z,16.92
2022-08-20T21:49:15.495Z,10.88
2022-08-20T21:51:42.260Z,14.07
2022-08-20T21:54:09.015Z,12.80
2022-08-20T21:56:35.731Z,12.27
2022-08-20T21:59:04.060Z,14.50
2022-08-20T22:01:32.698Z,9.48
